Licenciado Gustavo Díaz Ordaz International Airport
MMPR : now visible

Airfield :











YOU CAN JOIN US ON...

 
LOGIN :

Register | Disclaimer

   EN    FR    IT 

 









Legend :    VFR   Marginal VFR   IFR   Intensive IFR   Very Intensive IFR
Visi :
Ceiling :
>= 8 km
>= 3000ft
5 to 8 km
1000 to 3000 ft
1500m to 5 km
500 to 1000 ft
800 to 1500m
200 to 500 ft
< 800m
< 200 ft
Symbols :   Thunderstorms  Fog  Heavy snow  Heavy precipitations  Wind > 20 kt






- Airport Elevation : 23 ft
- IATA code : PVR


MMPR - Licenciado Gustavo Díaz Ordaz International

CURRENT METAR :
  • 041544Z 00000KT 15SM SKC 27/20 A2999

EXPIRED METARs :
  • 041450Z 04002KT 15SM SKC 23/21 A2998 RMK SLP150 5//// 953
  • 041349Z 02006KT 15SM SKC 21/20 A2997 RMK AC-N

TAF TAF MMPR
Valid from the 04 at 12:00 until the 05 at 18:00 UTC


041055Z 0412/0518 04005KT P6SM SKC TX28/0419Z TN20/0412Z
FM041800 23010KT P6SM SCT250
FM050600 34005KT P6SM SKC
FM051700 22010KT P6SM SCT250
MMFR FIR / North America



MET'MAP, your aeronautical weather chart ! - Copyright ORBIFLY December 2007 - Disclaimer

ORBIFLY MET'MAP TEAM :

Programming & Development : Alexandra Zaïnal
Original concept : Baudouin d'Aumeries
Technical & hardware support : Manuel Goepfert
Assistance : Marc-Olivier Méhu




SOURCES & CREDITS :

   NOAA       Earth
Advisory